Time;durP1;ratioP1;P1;durP2;ratioP2;P2;SDS_P1;SDS_P2;PMS_P1;PMS_P2;Temp;Humidity;BMP_temperature;BMP_pressure;BME280_temperature;BME280_humidity;BME280_pressure;Samples;Min_cycle;Max_cycle;Signal;HPM_P1;HPM_P2
2023/11/10 00:01:01;;;;;;;7.30;3.45;;;;;;;6.62;100.00;99178.47;5082747;28;20148;-81
2023/11/10 00:03:27;;;;;;;4.30;2.90;;;;;;;6.59;100.00;99177.03;5082748;28;20052;-81
2023/11/10 00:05:54;;;;;;;8.27;2.80;;;;;;;6.62;100.00;99173.25;5082302;28;20514;-81
2023/11/10 00:08:20;;;;;;;7.97;2.88;;;;;;;6.54;100.00;99173.31;5083428;28;20048;-81
2023/11/10 00:10:51;;;;;;;6.38;3.17;;;;;;;6.59;100.00;99168.44;5082451;28;20064;-81
2023/11/10 00:13:18;;;;;;;7.88;3.30;;;;;;;6.46;100.00;99161.13;5082425;28;20045;-81
2023/11/10 00:15:45;;;;;;;4.55;3.10;;;;;;;6.45;100.00;99169.91;5082897;28;20144;-80
2023/11/10 00:18:11;;;;;;;5.70;2.78;;;;;;;6.48;100.00;99168.75;5082623;28;20431;-81
2023/11/10 00:20:39;;;;;;;3.97;2.95;;;;;;;6.47;100.00;99161.94;5088962;28;20052;-81
2023/11/10 00:23:07;;;;;;;5.13;3.05;;;;;;;6.54;100.00;99155.13;5085684;28;20395;-81
2023/11/10 00:25:34;;;;;;;6.10;3.28;;;;;;;6.53;100.00;99158.69;5084975;28;20418;-82
2023/11/10 00:28:02;;;;;;;5.80;3.15;;;;;;;6.58;100.00;99164.19;5086254;28;20060;-81
2023/11/10 00:30:29;;;;;;;8.52;3.33;;;;;;;6.56;100.00;99161.78;5086349;28;20041;-82
2023/11/10 00:32:56;;;;;;;7.13;3.30;;;;;;;6.60;100.00;99151.84;5085247;28;20052;-81
2023/11/10 00:35:22;;;;;;;5.13;3.20;;;;;;;6.65;100.00;99154.75;5085174;28;20093;-81
2023/11/10 00:37:50;;;;;;;6.35;3.78;;;;;;;6.56;100.00;99151.38;5085704;28;20387;-82
2023/11/10 00:40:16;;;;;;;7.25;3.42;;;;;;;6.58;100.00;99152.03;5085855;28;20052;-82
2023/11/10 00:42:43;;;;;;;5.22;3.83;;;;;;;6.60;100.00;99151.84;5086623;28;20117;-82
2023/11/10 00:45:11;;;;;;;7.47;3.38;;;;;;;6.71;100.00;99155.88;5082073;28;20095;-82
2023/11/10 00:47:38;;;;;;;6.45;3.47;;;;;;;6.75;100.00;99160.56;5081075;28;20087;-82
2023/11/10 00:50:05;;;;;;;7.97;4.00;;;;;;;6.81;100.00;99159.91;5082777;28;20075;-81
2023/11/10 00:52:32;;;;;;;4.35;3.28;;;;;;;6.61;100.00;99148.28;5089271;28;20036;-81
2023/11/10 00:54:59;;;;;;;4.85;2.92;;;;;;;6.52;100.00;99162.25;5081907;28;20095;-81
2023/11/10 00:57:25;;;;;;;8.75;3.15;;;;;;;6.47;100.00;99154.16;5083059;28;20410;-82
2023/11/10 00:59:52;;;;;;;4.93;3.30;;;;;;;6.57;100.00;99152.19;5081591;28;20068;-82
2023/11/10 01:02:20;;;;;;;7.97;3.60;;;;;;;6.51;100.00;99137.25;5081561;28;20084;-81
2023/11/10 01:04:46;;;;;;;6.75;3.58;;;;;;;6.63;100.00;99141.91;5085067;28;20158;-83
2023/11/10 01:07:13;;;;;;;7.57;3.72;;;;;;;6.71;100.00;99148.88;5090645;28;20052;-81
2023/11/10 01:09:39;;;;;;;5.38;3.78;;;;;;;6.69;100.00;99143.03;5090167;28;20055;-82
2023/11/10 01:12:08;;;;;;;7.30;3.83;;;;;;;6.58;100.00;99139.03;5088784;28;20076;-82
2023/11/10 01:14:35;;;;;;;6.40;4.03;;;;;;;6.60;100.00;99144.06;5088993;28;20048;-82
2023/11/10 01:17:01;;;;;;;5.70;3.88;;;;;;;6.48;100.00;99127.19;5089019;28;20072;-81
2023/11/10 01:19:29;;;;;;;5.88;3.38;;;;;;;6.67;100.00;99137.19;5088824;28;20418;-81
2023/11/10 01:21:56;;;;;;;7.50;3.90;;;;;;;6.53;100.00;99125.72;5087859;28;20530;-82
2023/11/10 01:24:23;;;;;;;6.35;3.60;;;;;;;6.62;100.00;99123.88;5081699;28;20055;-82
2023/11/10 01:26:50;;;;;;;5.00;3.88;;;;;;;6.49;100.00;99129.63;5087281;28;20048;-82
2023/11/10 01:29:16;;;;;;;7.45;3.92;;;;;;;6.45;100.00;99117.13;5085132;28;20124;-82
2023/11/10 01:31:44;;;;;;;6.88;4.20;;;;;;;6.50;100.00;99120.03;5080421;28;20112;-81
2023/11/10 01:34:10;;;;;;;9.10;4.38;;;;;;;6.39;100.00;99115.19;5080020;28;20121;-81
2023/11/10 01:36:38;;;;;;;8.77;4.32;;;;;;;6.51;100.00;99119.88;5081903;28;20131;-81
2023/11/10 01:39:08;;;;;;;7.43;4.35;;;;;;;6.58;100.00;99122.63;5082406;28;20080;-81
2023/11/10 01:41:37;;;;;;;8.07;4.30;;;;;;;6.68;100.00;99123.22;5078346;28;20113;-83
2023/11/10 01:44:05;;;;;;;7.35;4.60;;;;;;;6.72;100.00;99121.91;5080556;28;20056;-82
2023/11/10 01:46:44;;;;;;;8.68;4.32;;;;;;;6.73;100.00;99128.72;5080286;28;20083;-81
2023/11/10 01:49:13;;;;;;;6.40;4.18;;;;;;;6.68;100.00;99127.59;5081693;28;20108;-81
2023/11/10 01:51:41;;;;;;;8.55;4.13;;;;;;;6.69;100.00;99122.22;5081623;28;20139;-81
2023/11/10 01:54:09;;;;;;;8.90;4.20;;;;;;;6.58;100.00;99127.81;5082229;28;20140;-80
2023/11/10 01:56:37;;;;;;;6.15;3.80;;;;;;;6.55;100.00;99130.75;5080428;28;20470;-79
2023/11/10 01:59:06;;;;;;;6.65;4.00;;;;;;;6.68;100.00;99132.78;5080190;28;20078;-80
2023/11/10 02:01:33;;;;;;;8.02;4.40;;;;;;;6.72;100.00;99137.50;5078174;28;20052;-79
2023/11/10 02:04:02;;;;;;;8.52;3.97;;;;;;;6.71;100.00;99141.06;5079964;28;20051;-79
2023/11/10 02:06:29;;;;;;;8.68;4.07;;;;;;;6.66;100.00;99127.75;5081720;28;20048;-80
2023/11/10 02:08:57;;;;;;;9.65;4.40;;;;;;;6.76;100.00;99128.38;5078362;28;20055;-79
2023/11/10 02:11:29;;;;;;;5.88;4.13;;;;;;;6.71;100.00;99124.66;5079151;28;20053;-79
2023/11/10 02:13:59;;;;;;;6.03;4.00;;;;;;;6.84;100.00;99130.16;5080718;28;20464;-79
2023/11/10 02:16:26;;;;;;;7.20;4.07;;;;;;;6.82;100.00;99132.09;5079541;28;20102;-79
2023/11/10 02:18:54;;;;;;;9.50;3.35;;;;;;;7.00;100.00;99132.69;5080972;28;20102;-79
2023/11/10 02:21:20;;;;;;;5.07;3.10;;;;;;;7.03;100.00;99126.34;5082633;28;20049;-79
2023/11/10 02:23:49;;;;;;;4.65;2.97;;;;;;;7.04;100.00;99120.97;5083764;28;20134;-80
2023/11/10 02:26:17;;;;;;;6.80;3.15;;;;;;;7.07;100.00;99122.44;5080673;28;20177;-79
2023/11/10 02:28:44;;;;;;;4.32;2.97;;;;;;;7.04;100.00;99117.56;5079183;28;21221;-79
2023/11/10 02:31:11;;;;;;;6.50;3.30;;;;;;;7.06;100.00;99111.22;5078660;28;20056;-79
2023/11/10 02:33:37;;;;;;;6.40;3.50;;;;;;;7.02;100.00;99109.13;5082812;28;20068;-80
2023/11/10 02:36:06;;;;;;;4.60;2.85;;;;;;;7.05;100.00;99116.59;5083608;28;20049;-80
2023/11/10 02:38:32;;;;;;;5.22;2.65;;;;;;;7.06;100.00;99110.41;5083834;28;20113;-80
2023/11/10 02:40:59;;;;;;;4.45;2.60;;;;;;;7.05;100.00;99107.00;5082840;28;20068;-80
2023/11/10 02:43:27;;;;;;;3.53;2.47;;;;;;;7.13;100.00;99116.50;5084989;28;20080;-81
2023/11/10 02:45:53;;;;;;;3.75;2.33;;;;;;;7.15;100.00;99115.38;5082805;28;20149;-80
2023/11/10 02:48:20;;;;;;;6.80;2.50;;;;;;;7.12;100.00;99109.69;5081731;28;20080;-83
2023/11/10 02:50:47;;;;;;;2.47;1.90;;;;;;;7.15;100.00;99122.34;5079394;28;20091;-83
2023/11/10 02:53:14;;;;;;;4.97;2.13;;;;;;;7.11;100.00;99105.47;5082163;28;20507;-80
2023/11/10 02:55:41;;;;;;;4.28;2.03;;;;;;;7.03;100.00;99110.75;5083589;28;20104;-81
2023/11/10 02:58:08;;;;;;;2.45;2.10;;;;;;;7.06;100.00;99110.41;5083087;28;20080;-81
2023/11/10 03:00:36;;;;;;;4.97;3.03;;;;;;;7.08;100.00;99109.25;5082675;28;20072;-81
2023/11/10 03:03:02;;;;;;;4.57;2.15;;;;;;;6.99;100.00;99110.28;5082431;28;20102;-80
2023/11/10 03:05:30;;;;;;;5.22;2.17;;;;;;;7.01;100.00;99117.91;5082268;28;20059;-82
2023/11/10 03:07:57;;;;;;;3.40;2.17;;;;;;;6.89;100.00;99105.28;5079627;28;20510;-82
2023/11/10 03:10:23;;;;;;;4.25;2.45;;;;;;;6.91;100.00;99108.50;5082075;28;20515;-81
2023/11/10 03:12:50;;;;;;;3.17;2.10;;;;;;;6.97;100.00;99102.63;5081979;28;20050;-82
2023/11/10 03:15:17;;;;;;;4.60;2.47;;;;;;;7.05;100.00;99108.78;5082183;28;20514;-82
2023/11/10 03:17:46;;;;;;;3.47;2.03;;;;;;;7.15;100.00;99104.16;5082751;28;20060;-81
2023/11/10 03:20:13;;;;;;;8.13;2.63;;;;;;;7.12;100.00;99099.28;5079750;28;20055;-82
2023/11/10 03:22:40;;;;;;;4.90;1.80;;;;;;;7.05;100.00;99090.56;5077951;28;20044;-82
2023/11/10 03:25:08;;;;;;;4.30;2.05;;;;;;;6.97;100.00;99092.22;5080468;28;20554;-81
2023/11/10 03:27:36;;;;;;;4.95;2.22;;;;;;;6.86;100.00;99094.41;5077668;28;20101;-82
2023/11/10 03:30:03;;;;;;;3.83;2.38;;;;;;;6.82;100.00;99088.72;5077323;28;20108;-82
2023/11/10 03:32:32;;;;;;;6.35;2.72;;;;;;;6.79;100.00;99089.06;5078673;28;20072;-82
2023/11/10 03:35:00;;;;;;;3.42;1.98;;;;;;;6.85;100.00;99095.38;5081133;28;20045;-80
2023/11/10 03:37:26;;;;;;;5.25;2.40;;;;;;;6.84;100.00;99091.97;5079285;28;20076;-81
2023/11/10 03:39:53;;;;;;;3.90;2.45;;;;;;;6.87;100.00;99090.81;5080932;28;20182;-82
2023/11/10 03:42:19;;;;;;;7.50;2.90;;;;;;;6.90;100.00;99091.28;5081094;28;20079;-83
2023/11/10 03:44:47;;;;;;;6.57;2.63;;;;;;;6.95;100.00;99104.59;5083477;28;20048;-83
2023/11/10 03:47:14;;;;;;;8.55;2.67;;;;;;;6.99;100.00;99102.47;5078352;28;20052;-82
2023/11/10 03:49:41;;;;;;;6.57;2.80;;;;;;;7.06;100.00;99110.41;5076235;28;20083;-81
2023/11/10 03:52:09;;;;;;;5.13;2.83;;;;;;;7.09;100.00;99108.25;5077269;28;20123;-81
2023/11/10 03:54:35;;;;;;;7.03;2.88;;;;;;;7.04;100.00;99107.16;5077182;28;20072;-82
2023/11/10 03:57:02;;;;;;;6.35;2.72;;;;;;;7.11;100.00;99100.25;5077733;28;20112;-82
2023/11/10 03:59:30;;;;;;;4.43;2.42;;;;;;;7.15;100.00;99098.94;5077497;28;20139;-83
2023/11/10 04:01:56;;;;;;;7.97;2.80;;;;;;;7.15;100.00;99104.16;5077524;28;20052;-83
2023/11/10 04:04:23;;;;;;;6.03;3.00;;;;;;;7.09;100.00;99102.25;5077939;28;20135;-83
2023/11/10 04:06:50;;;;;;;7.43;3.22;;;;;;;6.96;100.00;99102.81;5076716;28;20414;-83
2023/11/10 04:09:18;;;;;;;6.82;2.88;;;;;;;7.07;100.00;99119.81;5076611;28;20049;-82
2023/11/10 04:11:45;;;;;;;4.90;3.45;;;;;;;7.11;100.00;99113.28;5076993;28;20052;-81
2023/11/10 04:14:12;;;;;;;6.22;3.50;;;;;;;7.08;100.00;99116.25;5077920;28;20045;-82
2023/11/10 04:16:38;;;;;;;5.30;3.90;;;;;;;7.01;100.00;99107.50;5077191;28;20140;-81
2023/11/10 04:19:05;;;;;;;8.10;3.25;;;;;;;7.10;100.00;99114.25;5078040;28;20159;-82
2023/11/10 04:21:31;;;;;;;10.57;3.53;;;;;;;7.06;100.00;99110.41;5077973;28;20048;-82
2023/11/10 04:23:58;;;;;;;5.88;2.90;;;;;;;7.09;100.00;99115.25;5074164;28;21204;-82
2023/11/10 04:26:26;;;;;;;9.73;3.10;;;;;;;7.22;100.00;99118.09;5084485;28;20123;-82
2023/11/10 04:28:53;;;;;;;7.60;3.78;;;;;;;7.19;100.00;99116.66;5084560;28;20091;-82
2023/11/10 04:31:20;;;;;;;6.25;3.00;;;;;;;7.17;100.00;99102.19;5085591;28;20171;-83
2023/11/10 04:33:46;;;;;;;6.18;2.60;;;;;;;7.20;100.00;99102.66;5085361;28;20052;-83
2023/11/10 04:36:14;;;;;;;4.80;2.40;;;;;;;7.33;100.00;99097.72;5085618;28;20064;-82
2023/11/10 04:38:43;;;;;;;5.05;2.55;;;;;;;7.35;100.00;99101.94;5086129;28;20529;-83
2023/11/10 04:41:10;;;;;;;9.88;3.17;;;;;;;7.33;100.00;99095.09;5087013;28;20041;-83
2023/11/10 04:43:38;;;;;;;7.32;2.90;;;;;;;7.43;100.00;99097.50;5086551;28;20045;-83
2023/11/10 04:46:05;;;;;;;6.03;2.80;;;;;;;7.44;100.00;99099.09;5085414;28;20150;-82
2023/11/10 04:48:31;;;;;;;6.97;2.30;;;;;;;7.41;100.00;99094.25;5085171;28;20498;-81
2023/11/10 04:50:58;;;;;;;8.85;2.55;;;;;;;7.49;100.00;99086.38;5085376;28;20044;-80
2023/11/10 04:53:25;;;;;;;5.70;2.10;;;;;;;7.46;100.00;99084.13;5085585;28;20120;-82
2023/11/10 04:55:51;;;;;;;4.35;2.25;;;;;;;7.55;100.00;99096.09;5085539;28;20076;-82
2023/11/10 04:58:18;;;;;;;5.47;2.40;;;;;;;7.54;100.00;99091.88;5084763;28;20044;-80
2023/11/10 05:00:46;;;;;;;3.75;2.28;;;;;;;7.61;100.00;99087.56;5084791;28;20087;-79
2023/11/10 05:03:15;;;;;;;5.88;2.40;;;;;;;7.59;100.00;99086.94;5085755;28;20052;-81
2023/11/10 05:05:41;;;;;;;4.68;2.55;;;;;;;7.57;100.00;99081.09;5086418;28;20048;-81
2023/11/10 05:08:09;;;;;;;5.93;2.40;;;;;;;7.60;100.00;99077.34;5084244;28;20147;-82
2023/11/10 05:10:36;;;;;;;8.48;3.28;;;;;;;7.57;100.00;99083.69;5083838;28;20067;-81
2023/11/10 05:13:03;;;;;;;6.78;2.67;;;;;;;7.63;100.00;99093.41;5084049;28;20055;-82
2023/11/10 05:15:30;;;;;;;6.40;2.60;;;;;;;7.65;100.00;99088.84;5085194;28;20044;-81
2023/11/10 05:17:58;;;;;;;6.35;2.20;;;;;;;7.72;100.00;99101.16;5085969;28;20400;-83
2023/11/10 05:20:24;;;;;;;5.32;2.53;;;;;;;7.69;100.00;99091.09;5086012;28;20084;-82
2023/11/10 05:22:51;;;;;;;7.40;2.53;;;;;;;7.68;100.00;99089.47;5083325;28;20135;-80
2023/11/10 05:25:18;;;;;;;5.80;2.78;;;;;;;7.61;100.00;99082.38;5080924;28;20075;-79
2023/11/10 05:27:44;;;;;;;8.50;2.50;;;;;;;7.62;100.00;99089.19;5081203;28;20084;-80
2023/11/10 05:30:12;;;;;;;6.68;2.65;;;;;;;7.60;100.00;99096.38;5082921;28;20091;-81
2023/11/10 05:32:39;;;;;;;5.78;2.53;;;;;;;7.52;100.00;99093.84;5082757;28;20071;-81
2023/11/10 05:35:08;;;;;;;4.80;2.22;;;;;;;7.62;100.00;99110.03;5082512;28;20127;-80
2023/11/10 05:37:35;;;;;;;5.43;2.65;;;;;;;7.55;100.00;99109.13;5082373;28;20048;-81
2023/11/10 05:40:02;;;;;;;4.93;2.58;;;;;;;7.61;100.00;99110.19;5082760;28;20157;-81
2023/11/10 05:42:28;;;;;;;6.90;2.58;;;;;;;7.62;100.00;99097.00;5083239;28;20052;-80
2023/11/10 05:44:55;;;;;;;6.40;2.63;;;;;;;7.55;100.00;99096.09;5083132;28;20105;-81
2023/11/10 05:47:21;;;;;;;5.78;2.47;;;;;;;7.48;100.00;99094.38;5083396;28;20103;-80
2023/11/10 05:49:48;;;;;;;6.65;2.42;;;;;;;7.44;100.00;99086.09;5083253;28;20595;-80
2023/11/10 05:52:16;;;;;;;4.35;3.40;;;;;;;7.42;100.00;99090.66;5084414;28;20063;-80
2023/11/10 05:54:42;;;;;;;6.55;3.80;;;;;;;7.37;100.00;99092.97;5085083;28;20076;-81
2023/11/10 05:57:09;;;;;;;8.10;4.03;;;;;;;7.33;100.00;99102.91;5082079;28;20088;-80
2023/11/10 05:59:36;;;;;;;6.38;2.53;;;;;;;7.36;100.00;99108.75;5079826;28;20348;-80
2023/11/10 06:02:03;;;;;;;7.60;2.65;;;;;;;7.45;100.00;99108.53;5083054;28;20047;-80
2023/11/10 06:04:30;;;;;;;4.35;2.35;;;;;;;7.47;100.00;99118.78;5079228;28;20472;-79
2023/11/10 06:06:56;;;;;;;5.53;2.28;;;;;;;7.45;100.00;99121.56;5081232;28;20090;-80
2023/11/10 06:09:25;;;;;;;3.60;2.17;;;;;;;7.43;100.00;99112.28;5078989;28;20048;-80
2023/11/10 06:11:51;;;;;;;4.03;2.17;;;;;;;7.33;100.00;99113.31;5079024;28;20105;-81
2023/11/10 06:14:18;;;;;;;4.97;2.35;;;;;;;7.29;100.00;99114.66;5078674;28;20111;-80
2023/11/10 06:16:45;;;;;;;3.80;2.75;;;;;;;7.31;100.00;99130.09;5078950;28;20056;-81
2023/11/10 06:19:12;;;;;;;4.65;2.30;;;;;;;7.27;100.00;99124.41;5080127;28;20087;-80
2023/11/10 06:21:39;;;;;;;4.93;2.72;;;;;;;7.31;100.00;99119.69;5079662;28;20139;-80
2023/11/10 06:24:08;;;;;;;7.00;2.60;;;;;;;7.37;100.00;99124.19;5081326;28;20131;-81
2023/11/10 06:26:36;;;;;;;13.93;6.90;;;;;;;7.34;100.00;99124.53;5080437;28;20083;-80
2023/11/10 06:29:03;;;;;;;5.65;3.08;;;;;;;7.19;100.00;99121.84;5078397;28;20048;-80
2023/11/10 06:31:30;;;;;;;4.38;2.20;;;;;;;7.26;100.00;99142.78;5075534;28;20275;-80
2023/11/10 06:33:58;;;;;;;7.72;2.70;;;;;;;7.30;100.00;99139.69;5076753;28;20136;-79
2023/11/10 06:36:25;;;;;;;7.15;3.97;;;;;;;7.31;100.00;99136.09;5075849;28;20116;-80
2023/11/10 06:38:51;;;;;;;5.65;2.55;;;;;;;7.36;100.00;99138.19;5078880;28;20439;-80
2023/11/10 06:41:18;;;;;;;3.97;2.80;;;;;;;7.33;100.00;99141.13;5079323;28;20083;-80
2023/11/10 06:43:46;;;;;;;4.43;2.20;;;;;;;7.41;100.00;99140.28;5081741;28;20048;-82
2023/11/10 06:46:22;;;;;;;6.03;2.88;;;;;;;7.47;100.00;99150.81;5078061;28;20048;-82
2023/11/10 06:48:50;;;;;;;11.57;2.60;;;;;;;7.42;100.00;99155.72;5079437;28;20059;-82
2023/11/10 06:51:17;;;;;;;4.03;2.08;;;;;;;7.41;100.00;99156.69;5080023;28;20048;-82
2023/11/10 06:53:43;;;;;;;5.82;2.45;;;;;;;7.50;100.00;99149.66;5076125;28;20586;-82
2023/11/10 06:56:10;;;;;;;3.53;2.30;;;;;;;7.57;100.00;99156.59;5074965;28;20088;-82
2023/11/10 06:58:37;;;;;;;3.65;2.05;;;;;;;7.53;100.00;99164.94;5077027;28;20451;-82
2023/11/10 07:01:06;;;;;;;3.35;1.90;;;;;;;7.64;100.00;99170.53;5075976;28;20526;-83
2023/11/10 07:03:36;;;;;;;7.07;3.17;;;;;;;7.65;100.00;99179.97;5075144;28;20052;-82
2023/11/10 07:06:04;;;;;;;7.25;2.45;;;;;;;7.53;100.00;99164.94;5074688;28;20537;-82
2023/11/10 07:08:31;;;;;;;6.35;1.90;;;;;;;7.63;100.00;99176.72;5077258;28;20071;-82
2023/11/10 07:11:01;;;;;;;5.32;2.20;;;;;;;7.71;100.00;99167.25;5080430;28;20100;-81
2023/11/10 07:13:27;;;;;;;5.80;2.60;;;;;;;7.76;100.00;99159.72;5088331;28;20056;-83
2023/11/10 07:15:55;;;;;;;4.90;2.20;;;;;;;7.82;100.00;99159.84;5089056;28;20080;-82
2023/11/10 07:18:24;;;;;;;4.63;2.42;;;;;;;8.07;100.00;99157.84;5089282;28;20055;-82
2023/11/10 07:20:51;;;;;;;4.32;2.20;;;;;;;8.06;100.00;99153.63;5088449;28;20044;-82
2023/11/10 07:23:18;;;;;;;5.70;1.85;;;;;;;7.97;100.00;99144.28;5089166;28;20040;-81
2023/11/10 07:25:47;;;;;;;3.53;1.70;;;;;;;7.97;100.00;99142.47;5089142;28;20052;-83
2023/11/10 07:28:14;;;;;;;5.53;2.25;;;;;;;8.04;100.00;99141.75;5088053;28;20064;-85
2023/11/10 07:30:42;;;;;;;5.80;2.10;;;;;;;8.02;100.00;99141.97;5082537;28;20080;-84
2023/11/10 07:33:08;;;;;;;8.48;2.92;;;;;;;8.03;100.00;99134.94;5081678;28;20058;-84
2023/11/10 07:35:40;;;;;;;3.92;2.65;;;;;;;8.19;100.00;99151.22;5082123;28;20080;-85
2023/11/10 07:38:07;;;;;;;3.00;2.10;;;;;;;8.18;100.00;99160.03;5082744;28;20063;-84
2023/11/10 07:40:39;;;;;;;5.90;2.15;;;;;;;8.08;100.00;99149.03;5081684;28;20071;-84
2023/11/10 07:43:17;;;;;;;6.45;2.70;;;;;;;8.10;100.00;99149.69;5080713;28;20052;-83
2023/11/10 07:45:46;;;;;;;7.07;2.38;;;;;;;8.18;100.00;99165.25;5081384;28;20704;-84
2023/11/10 07:48:13;;;;;;;2.00;1.83;;;;;;;7.91;100.00;99163.19;5080329;28;20051;-84
2023/11/10 07:50:45;;;;;;;3.45;2.30;;;;;;;7.81;100.00;99150.41;5079367;28;20071;-84
2023/11/10 07:53:13;;;;;;;4.78;2.40;;;;;;;7.89;100.00;99155.56;5080129;28;20059;-83
2023/11/10 07:55:41;;;;;;;4.70;1.95;;;;;;;8.01;100.00;99166.38;5080568;28;20510;-84
2023/11/10 07:58:08;;;;;;;4.45;2.40;;;;;;;7.85;100.00;99153.47;5083836;28;20082;-84
2023/11/10 08:00:35;;;;;;;3.28;2.15;;;;;;;7.92;100.00;99157.00;5083447;28;20084;-83
2023/11/10 08:03:02;;;;;;;5.40;2.42;;;;;;;8.10;100.00;99162.69;5084468;28;20056;-84
2023/11/10 08:05:30;;;;;;;3.92;2.63;;;;;;;8.16;100.00;99167.22;5084627;28;20049;-84
2023/11/10 08:08:02;;;;;;;6.88;3.60;;;;;;;8.30;100.00;99158.63;5084723;28;20080;-83
2023/11/10 08:13:41;;;;;;;3.33;2.47;;;;;;;8.29;100.00;99146.59;5074973;28;20048;-83
2023/11/10 08:16:25;;;;;;;6.18;2.58;;;;;;;8.37;100.00;99161.38;5076485;28;20102;-83
2023/11/10 08:19:00;;;;;;;5.53;2.85;;;;;;;8.35;100.00;99145.09;5088177;28;20066;-83
2023/11/10 08:21:34;;;;;;;7.30;3.00;;;;;;;8.18;100.00;99144.41;5083192;28;20049;-83
2023/11/10 08:24:31;;;;;;;4.40;2.40;;;;;;;8.26;100.00;99152.16;5079968;28;20127;-82
2023/11/10 08:27:18;;;;;;;;;;;;;;;;;;;;;
2023/11/10 08:29:52;;;;;;;5.47;2.72;;;;;;;8.35;100.00;99136.47;5082924;28;20456;-82
2023/11/10 08:32:30;;;;;;;6.80;3.00;;;;;;;8.47;100.00;99127.22;5084904;28;20045;-82
2023/11/10 08:35:16;;;;;;;10.77;5.97;;;;;;;8.55;100.00;99150.59;5079590;28;20112;-84
2023/11/10 08:37:53;;;;;;;15.95;9.93;;;;;;;8.64;100.00;99133.88;5082700;28;20053;-84
2023/11/10 08:40:34;;;;;;;6.03;4.35;;;;;;;8.87;100.00;99145.03;5081916;28;20165;-84
2023/11/10 08:43:04;;;;;;;10.25;4.85;;;;;;;8.96;100.00;99143.13;5081058;28;20060;-84
2023/11/10 08:45:32;;;;;;;7.38;5.38;;;;;;;8.84;98.19;99102.84;5077638;28;20053;-84
2023/11/10 08:47:59;;;;;;;11.10;5.60;;;;;;;9.01;97.05;99126.91;5074740;28;20499;-82
2023/11/10 08:50:29;;;;;;;7.38;4.80;;;;;;;8.79;96.62;99090.34;5083019;28;20307;-84
2023/11/10 08:53:03;;;;;;;3.70;2.15;;;;;;;8.87;95.81;99100.69;5083456;28;20150;-85
2023/11/10 08:55:33;;;;;;;5.55;2.08;;;;;;;9.03;95.90;99114.50;5079369;28;20226;-85
2023/11/10 08:57:59;;;;;;;5.57;2.25;;;;;;;8.88;95.65;99099.69;5073357;28;20044;-84
2023/11/10 09:00:46;;;;;;;8.05;3.13;;;;;;;8.90;95.75;99079.44;5083878;28;20411;-85
2023/11/10 09:03:16;;;;;;;5.60;2.58;;;;;;;8.97;95.63;99085.56;5081917;28;20052;-84
2023/11/10 09:05:44;;;;;;;5.85;3.30;;;;;;;8.99;95.34;99078.34;5081655;28;20048;-83
2023/11/10 09:08:13;;;;;;;3.60;1.85;;;;;;;9.21;95.73;99107.09;5080088;28;20056;-84
2023/11/10 09:10:44;;;;;;;5.10;2.22;;;;;;;9.16;95.17;99078.13;5081120;28;20060;-85
2023/11/10 09:13:36;;;;;;;8.50;2.30;;;;;;;9.14;94.58;99075.69;5081052;28;20056;-83
2023/11/10 09:16:05;;;;;;;5.15;2.08;;;;;;;9.21;93.80;99084.41;5081627;28;20396;-83
2023/11/10 09:18:38;;;;;;;6.78;2.42;;;;;;;9.30;94.05;99074.66;5080981;28;20059;-83
2023/11/10 09:21:14;;;;;;;5.97;2.40;;;;;;;9.55;93.37;99101.19;5080057;28;20044;-85
2023/11/10 09:23:54;;;;;;;7.00;2.25;;;;;;;9.34;92.47;99078.50;5082318;28;20059;-82
2023/11/10 09:26:22;;;;;;;3.60;1.90;;;;;;;9.39;91.16;99065.72;5076198;28;20045;-83
2023/11/10 09:28:52;;;;;;;5.00;1.98;;;;;;;9.65;91.22;99099.91;5088930;28;20064;-82
2023/11/10 09:31:19;;;;;;;5.05;2.00;;;;;;;9.52;89.81;99071.03;5093345;28;20053;-83
2023/11/10 09:33:50;;;;;;;4.88;3.17;;;;;;;9.39;89.67;99059.69;5088175;28;20059;-83
2023/11/10 09:36:24;;;;;;;8.37;2.30;;;;;;;9.43;90.29;99080.03;5079897;28;20135;-84
2023/11/10 09:38:54;;;;;;;5.05;2.33;;;;;;;9.50;90.03;99075.63;5080950;28;20052;-84
2023/11/10 09:41:24;;;;;;;3.10;1.98;;;;;;;9.48;89.16;99072.41;5079540;28;20106;-84
2023/11/10 09:43:58;;;;;;;7.63;2.33;;;;;;;9.55;89.28;99078.50;5081141;28;20075;-84
2023/11/10 09:46:32;;;;;;;11.45;5.07;;;;;;;9.63;89.41;99094.06;5079649;28;20110;-84
2023/11/10 09:49:05;;;;;;;6.30;2.00;;;;;;;9.71;89.25;99102.75;5082180;28;20044;-83
2023/11/10 09:51:35;;;;;;;4.45;2.22;;;;;;;9.60;89.18;99088.38;5083528;28;20075;-83
2023/11/10 09:54:08;;;;;;;6.20;2.35;;;;;;;9.61;89.32;99096.03;5070584;28;20049;-83
2023/11/10 09:56:39;;;;;;;4.57;2.22;;;;;;;9.51;89.43;99074.66;5079142;28;20048;-83
2023/11/10 09:59:08;;;;;;;3.25;2.40;;;;;;;9.53;89.48;99088.31;5079499;28;20103;-84
2023/11/10 10:01:42;;;;;;;5.38;2.60;;;;;;;9.64;88.50;99074.78;5079383;28;20044;-83
2023/11/10 10:04:21;;;;;;;8.88;2.60;;;;;;;10.06;87.93;99086.16;5078969;28;20060;-84
2023/11/10 10:07:01;;;;;;;8.35;3.22;;;;;;;10.09;87.33;99070.09;5081214;28;20135;-83
2023/11/10 10:09:32;;;;;;;7.13;2.47;;;;;;;10.37;86.41;99070.13;5079503;28;20048;-83
2023/11/10 10:12:16;;;;;;;6.55;2.75;;;;;;;10.50;85.45;99056.28;5073579;28;20049;-82
2023/11/10 10:14:55;;;;;;;5.60;2.05;;;;;;;10.42;84.91;99023.25;5079878;28;20044;-83
2023/11/10 10:17:36;;;;;;;8.32;2.70;;;;;;;10.52;84.52;99028.13;5080326;28;20049;-84
2023/11/10 10:20:14;;;;;;;6.78;2.28;;;;;;;10.61;83.74;99046.09;5079635;28;20078;-83
2023/11/10 10:22:45;;;;;;;4.68;2.25;;;;;;;10.36;83.38;99025.84;5075750;28;20052;-83
2023/11/10 10:46:39;;;;;;;6.70;2.17;;;;;;;10.27;83.20;98984.19;4849937;29;19959;-82
2023/11/10 11:55:22;;;;;;;;;;;;;;;;;;;;;
2023/11/10 12:52:11;;;;;;;;;;;;;;;;;;;;;
2023/11/10 12:55:16;;;;;;;2.10;1.23;;;;;;;10.08;87.29;98977.00;4937114;29;20059;-81
2023/11/10 12:58:32;;;;;;;;;;;;;;;;;;;;;
2023/11/10 13:01:22;;;;;;;2.95;1.38;;;;;;;9.94;88.39;98968.28;4969733;28;20072;-81
2023/11/10 13:04:30;;;;;;;3.70;1.60;;;;;;;9.99;88.01;98978.16;5058130;28;20053;-81
2023/11/10 13:32:48;;;;;;;5.35;1.42;;;;;;;9.61;97.20;99002.03;4970531;28;20061;-81
2023/11/10 13:39:12;;;;;;;2.13;0.68;;;;;;;9.44;96.27;99000.69;5013027;28;20061;-81
2023/11/10 13:58:33;;;;;;;;;;;;;;;;;;;;;
2023/11/10 14:30:36;;;;;;;5.32;1.80;;;;;;;9.64;96.25;99016.50;4995359;28;20053;-81
2023/11/10 14:33:10;;;;;;;4.30;1.52;;;;;;;9.58;96.42;99023.28;5051765;28;20045;-81
2023/11/10 14:35:52;;;;;;;2.28;1.42;;;;;;;9.64;96.88;99026.97;5057548;28;20071;-80
2023/11/10 14:41:52;;;;;;;12.38;1.70;;;;;;;9.48;99.30;99033.25;5046091;28;20053;-81
2023/11/10 14:44:33;;;;;;;3.88;1.38;;;;;;;9.44;100.00;99028.63;5053971;28;20060;-81
2023/11/10 14:47:32;;;;;;;4.80;1.70;;;;;;;9.36;100.00;99019.09;5051052;28;20044;-80
2023/11/10 14:50:34;;;;;;;2.20;1.30;;;;;;;9.34;100.00;99005.44;5056393;28;20150;-80
2023/11/10 14:56:21;;;;;;;3.85;1.85;;;;;;;9.27;100.00;99005.38;5061337;28;20067;-80
2023/11/10 14:59:22;;;;;;;2.33;1.45;;;;;;;9.41;100.00;99027.19;5072472;28;20033;-80
2023/11/10 15:05:34;;;;;;;4.38;1.60;;;;;;;9.34;100.00;99035.94;5053451;28;20055;-80
2023/11/10 15:08:35;;;;;;;2.20;1.50;;;;;;;9.25;100.00;99028.22;5056126;28;20068;-80
2023/11/10 15:11:12;;;;;;;3.50;1.67;;;;;;;9.07;100.00;99024.41;5049563;28;20045;-80
2023/11/10 15:17:02;;;;;;;5.00;1.88;;;;;;;9.24;100.00;99031.03;5012139;28;20134;-81
2023/11/10 15:19:54;;;;;;;4.30;1.65;;;;;;;9.29;100.00;99018.22;5057134;28;20041;-80
2023/11/10 15:35:39;;;;;;;;;;;;;;;9.23;100.00;99032.03;4978448;28;20097;-80
2023/11/10 15:38:39;;;;;;;8.52;3.90;;;;;;;9.14;100.00;99054.81;4972530;28;19922;-80
2023/11/10 15:41:15;;;;;;;5.07;2.78;;;;;;;9.07;100.00;99046.09;4959465;28;20042;-80
2023/11/10 15:44:32;;;;;;;8.00;4.13;;;;;;;8.91;100.00;99041.94;4966343;28;20497;-80
2023/11/10 15:50:26;;;;;;;4.13;2.70;;;;;;;8.93;100.00;99058.22;5017429;28;20879;-81
2023/11/10 15:53:02;;;;;;;7.22;3.17;;;;;;;8.95;100.00;99069.28;5016778;28;20049;-80
2023/11/10 15:55:30;;;;;;;6.07;3.08;;;;;;;8.91;100.00;99065.41;5026249;28;20068;-79
2023/11/10 15:57:59;;;;;;;5.78;2.72;;;;;;;8.80;100.00;99060.66;5035906;28;20438;-81
2023/11/10 16:00:26;;;;;;;8.18;2.95;;;;;;;8.87;100.00;99071.19;5036563;28;20053;-81
2023/11/10 16:02:53;;;;;;;6.00;3.30;;;;;;;8.86;100.00;99069.56;5035674;28;20057;-80
2023/11/10 16:05:19;;;;;;;9.43;4.75;;;;;;;8.76;100.00;99063.81;5020431;28;20050;-80
2023/11/10 16:07:48;;;;;;;8.75;3.83;;;;;;;8.76;100.00;99069.03;5024513;28;20449;-79